Latest Weather Observations for Ivanhoe Airport

IDN60801

Issued at 10:02 am EST Thursday 29 June 2017 (issued every 30 minutes, with the page automatically refreshed every 10 minutes)

About weather observations | Map of weather stations | Latest weather observations for NSW | Other Formats
Station Details ID: 049000 Name: IVANHOE AERODROME AWS Lat: -32.88 Lon: 144.31 Height: 100.0 m
Data from the previous 72 hours. | See also: Recent months at Ivanhoe Airport
Date/Time
EST
Temp
°C
App
Temp
°C
Dew
Point
°C
Rel
Hum
%
Delta-T
°C
Wind Press
QNH
hPa
Press
MSL
hPa
Rain since
9am
mm
Dir  Spd
km/h
Gust
km/h
Spd
kts
Gust
kts
29/10:00am 10.7 8.7 7.0 78 1.8 SSW 7 11 4 6 1024.9 1025.0 0.0
29/09:30am 10.4 8.4 7.3 81 1.5 SSW 7 9 4 5 1024.6 1024.7 0.0
29/09:00am 10.0 8.6 7.4 84 1.2 S 4 13 2 7 1024.3 1024.4 0.0
29/08:30am 9.2 8.5 7.0 86 1.0 CALM 0 2 0 1 1024.0 1024.1 0.0
29/08:00am 8.2 7.4 6.5 89 0.8 CALM 0 0 0 0 1023.6 1023.7 0.0
29/07:30am 7.8 6.8 5.8 87 0.9 CALM 0 0 0 0 1023.3 1023.4 0.0
29/07:00am 8.2 6.1 6.0 86 1.0 W 6 7 3 4 1023.0 1023.1 0.0
29/06:30am 8.5 7.6 6.1 85 1.1 CALM 0 0 0 0 1023.1 1023.2 0.0
29/06:00am 8.5 7.3 6.3 86 1.0 SW 2 7 1 4 1022.8 1022.9 0.0
29/05:30am 8.5 5.9 6.3 86 1.0 ENE 9 11 5 6 1022.2 1022.3 0.0
29/05:00am 8.5 6.3 6.1 85 1.1 ENE 7 9 4 5 1022.2 1022.3 0.0
29/04:30am 8.3 6.1 6.1 86 1.0 SSE 7 9 4 5 1022.1 1022.2 0.0
29/04:00am 8.0 5.7 5.8 86 1.0 SSE 7 9 4 5 1022.2 1022.3 0.0
29/03:30am 7.9 5.6 5.7 86 1.0 SSE 7 13 4 7 1022.4 1022.5 0.0
29/03:00am 8.0 5.7 5.6 85 1.1 ESE 7 9 4 5 1022.1 1022.2 0.0
29/02:30am 8.1 5.9 5.4 83 1.2 ESE 6 7 3 4 1022.3 1022.4 0.0
29/02:00am 8.7 6.4 5.8 82 1.3 ENE 7 9 4 5 1022.6 1022.7 0.0
29/01:30am 9.4 7.4 6.1 80 1.5 ENE 6 7 3 4 1022.6 1022.7 0.0
29/01:00am 9.5 7.3 6.2 80 1.5 NE 7 7 4 4 1022.7 1022.8 0.0
29/12:30am 9.3 7.1 6.0 80 1.5 ENE 7 9 4 5 1022.9 1023.0 0.0
29/12:00am 9.1 6.1 5.8 80 1.5 E 11 13 6 7 1023.0 1023.1 0.0
 
Date/Time
EST
Temp
°C
App
Temp
°C
Dew
Point
°C
Rel
Hum
%
Delta-T
°C
Wind Press
QNH
hPa
Press
MSL
hPa
Rain since
9am
mm
Dir  Spd
km/h
Gust
km/h
Spd
kts
Gust
kts
28/11:30pm 9.4 6.7 5.8 78 1.7 E 9 11 5 6 1023.0 1023.1 0.0
28/11:00pm 9.5 6.9 5.9 78 1.7 E 9 11 5 6 1023.1 1023.2 0.0
28/10:30pm 9.4 6.7 5.4 76 1.8 E 9 9 5 5 1023.1 1023.2 0.0
28/10:00pm 10.0 7.6 5.4 73 2.1 ESE 7 7 4 4 1023.3 1023.4 0.0
28/09:30pm 10.5 8.3 5.3 70 2.4 ESE 6 7 3 4 1023.2 1023.3 0.0
28/09:00pm 11.1 8.8 5.6 69 2.5 E 7 9 4 5 1023.1 1023.2 0.0
28/08:30pm 11.5 9.2 5.6 67 2.7 SE 7 9 4 5 1023.0 1023.1 0.0
28/08:00pm 12.1 9.8 5.5 64 3.1 SE 7 7 4 4 1023.1 1023.2 0.0
28/07:30pm 12.3 10.0 5.5 63 3.2 SE 7 9 4 5 1022.9 1023.0 0.0
28/07:00pm 12.4 10.0 5.3 62 3.3 SE 7 9 4 5 1022.6 1022.7 0.0
28/06:30pm 12.9 10.5 5.3 60 3.6 E 7 9 4 5 1022.5 1022.6 0.0
28/06:00pm 13.1 10.9 5.3 59 3.6 E 6 7 3 4 1022.4 1022.5 0.0
28/05:30pm 13.5 12.4 5.2 57 3.9 CALM 0 2 0 1 1022.2 1022.3 0.0
28/05:00pm 13.8 11.4 5.2 56 4.0 ENE 7 11 4 6 1021.9 1022.0 0.0
28/04:30pm 14.9 12.5 5.1 52 4.6 NE 7 11 4 6 1022.0 1022.1 0.0
28/04:00pm 15.0 12.3 5.8 54 4.4 ENE 9 13 5 7 1021.9 1022.0 0.0
28/03:30pm 14.9 12.5 5.1 52 4.6 SE 7 11 4 6 1021.7 1021.8 0.0
28/03:00pm 15.2 12.4 5.1 51 4.8 SE 9 13 5 7 1021.7 1021.8 0.0
28/02:30pm 15.7 13.3 5.3 50 5.0 SE 7 11 4 6 1021.7 1021.8 0.0
28/02:00pm 14.9 13.1 5.4 53 4.5 SE 4 11 2 6 1021.8 1021.9 0.0
28/01:30pm 15.1 12.8 5.6 53 4.5 SSE 7 9 4 5 1022.2 1022.3 0.0
28/01:00pm 15.0 12.8 6.0 55 4.3 E 7 13 4 7 1022.5 1022.6 0.0
28/12:30pm 15.0 12.9 5.8 54 4.4 ENE 6 11 3 6 1023.0 1023.1 0.0
28/12:00pm 14.4 12.3 5.7 56 4.1 ESE 6 11 3 6 1023.5 1023.6 0.0
28/11:30am 13.9 11.7 6.0 59 3.8 ENE 7 11 4 6 1023.9 1024.0 0.0
28/11:00am 13.0 10.8 6.1 63 3.3 E 7 11 4 6 1024.2 1024.3 0.0
28/10:30am 12.3 10.1 6.4 67 2.8 ENE 7 11 4 6 1024.4 1024.5 0.0
28/10:00am 11.6 9.2 6.9 73 2.2 NE 9 13 5 7 1024.4 1024.5 0.0
28/09:30am 10.3 7.9 7.0 80 1.6 ENE 9 15 5 8 1024.2 1024.3 0.0
28/09:00am 9.2 6.8 7.0 86 1.0 ENE 9 11 5 6 1024.1 1024.2 0.0
28/08:30am 8.5 6.0 6.6 88 0.9 ENE 9 11 5 6 1024.1 1024.2 0.0
28/08:00am 7.6 5.4 6.2 91 0.6 SSE 7 9 4 5 1023.8 1023.9 0.0
28/07:30am 7.5 5.4 5.8 89 0.8 SE 6 7 3 4 1023.4 1023.5 0.0
28/07:00am 7.7 6.7 5.8 88 0.9 CALM 0 0 0 0 1023.4 1023.5 0.0
28/06:30am 7.9 7.0 5.9 87 0.9 CALM 0 0 0 0 1023.2 1023.3 0.0
28/06:00am 8.0 5.9 6.0 87 0.9 E 6 7 3 4 1023.0 1023.1 0.0
28/05:30am 8.0 5.7 5.8 86 1.0 E 7 9 4 5 1022.7 1022.8 0.0
28/05:00am 8.1 5.5 5.9 86 1.0 ESE 9 11 5 6 1022.7 1022.8 0.0
28/04:30am 7.9 5.6 5.7 86 1.0 ENE 7 9 4 5 1022.9 1023.0 0.0
28/04:00am 7.9 5.2 5.7 86 1.0 ENE 9 9 5 5 1022.9 1023.0 0.0
28/03:30am 8.4 5.8 5.9 84 1.1 ENE 9 11 5 6 1023.1 1023.2 0.0
28/03:00am 8.3 5.7 5.9 85 1.1 ENE 9 9 5 5 1023.3 1023.4 0.0
28/02:30am 8.1 5.4 5.6 84 1.1 E 9 9 5 5 1023.2 1023.3 0.0
28/02:00am 8.1 5.4 5.4 83 1.2 E 9 9 5 5 1023.1 1023.2 0.0
28/01:30am 8.3 5.6 5.6 83 1.2 ENE 9 11 5 6 1023.1 1023.2 0.0
28/01:00am 8.3 5.6 5.6 83 1.2 NE 9 11 5 6 1023.3 1023.4 0.0
28/12:30am 8.6 5.9 5.7 82 1.3 NE 9 11 5 6 1023.3 1023.4 0.0
28/12:00am 8.4 5.7 5.5 82 1.3 ENE 9 11 5 6 1023.5 1023.6 0.0
 
Date/Time
EST
Temp
°C
App
Temp
°C
Dew
Point
°C
Rel
Hum
%
Delta-T
°C
Wind Press
QNH
hPa
Press
MSL
hPa
Rain since
9am
mm
Dir  Spd
km/h
Gust
km/h
Spd
kts
Gust
kts
27/11:30pm 8.9 5.8 5.6 80 1.5 ENE 11 13 6 7 1023.7 1023.8 0.0
27/11:00pm 9.9 6.9 5.9 76 1.8 ENE 11 15 6 8 1023.8 1023.9 0.0
27/10:30pm 10.3 6.6 6.3 76 1.9 ENE 15 19 8 10 1023.3 1023.4 0.0
27/10:00pm 10.6 7.3 6.2 74 2.0 ESE 13 15 7 8 1023.2 1023.3 0.0
27/09:30pm 10.5 7.5 5.9 73 2.1 ESE 11 13 6 7 1023.4 1023.5 0.0
27/09:00pm 10.6 7.9 5.8 72 2.2 SE 9 11 5 6 1024.0 1024.1 0.0
27/08:30pm 10.8 8.1 5.8 71 2.3 SE 9 11 5 6 1024.3 1024.4 0.0
27/08:00pm 10.9 8.3 5.9 71 2.3 SE 9 11 5 6 1024.1 1024.2 0.0
27/07:30pm 11.1 8.4 5.8 70 2.5 ESE 9 11 5 6 1023.9 1024.0 0.0
27/07:00pm 11.1 8.4 5.6 69 2.5 ESE 9 11 5 6 1023.5 1023.6 0.0
27/06:30pm 11.6 8.4 5.0 64 3.0 SSE 11 15 6 8 1023.3 1023.4 0.0
27/06:00pm 12.1 9.3 5.0 62 3.3 SE 9 13 5 7 1022.9 1023.0 0.0
27/05:30pm 12.5 9.6 4.7 59 3.6 SSE 9 11 5 6 1022.8 1022.9 0.0
27/05:00pm 14.5 12.0 5.0 53 4.4 SSE 7 11 4 6 1022.8 1022.9 0.0
27/04:30pm 15.0 12.6 5.2 52 4.6 SSE 7 9 4 5 1022.8 1022.9 0.0
27/04:00pm 15.6 13.5 5.8 52 4.7 SSE 6 11 3 6 1022.6 1022.7 0.0
27/03:30pm 15.3 14.3 5.5 52 4.7 CALM 0 0 0 0 1022.7 1022.8 0.0
27/03:00pm 15.4 13.2 6.2 54 4.4 NE 7 11 4 6 1022.8 1022.9 0.0
27/02:30pm 15.1 12.9 5.3 52 4.7 NNE 6 11 3 6 1022.8 1022.9 0.0
27/02:00pm 14.5 12.4 5.6 55 4.2 E 6 11 3 6 1023.1 1023.2 0.0
27/01:30pm 14.3 12.0 5.7 56 4.1 ENE 7 15 4 8 1023.4 1023.5 0.0
27/01:00pm 14.2 10.9 6.3 59 3.8 ENE 13 17 7 9 1023.7 1023.8 0.0
27/12:30pm 13.5 10.8 7.3 66 3.0 NNE 11 15 6 8 1024.1 1024.2 0.0
27/12:00pm 12.8 10.2 7.7 71 2.5 NE 11 15 6 8 1024.6 1024.7 0.0
27/11:30am 11.2 8.8 7.1 76 2.0 ENE 9 11 5 6 1025.1 1025.2 0.0
27/11:00am 10.3 9.3 7.2 81 1.5 NE 2 7 1 4 1025.7 1025.8 0.0
27/10:30am 9.7 8.2 7.0 83 1.3 SSE 4 6 2 3 1025.8 1025.9 0.0
27/10:00am 8.9 7.8 6.7 86 1.0 E 2 7 1 4 1025.7 1025.8 0.0
27/09:30am 8.3 7.5 6.6 89 0.8 CALM 0 0 0 0 1025.8 1025.9 0.0
27/09:00am 7.4 5.2 6.2 92 0.5 E 7 11 4 6 1025.6 1025.7 0.0
27/08:30am 6.4 4.1 5.5 94 0.4 E 7 9 4 5 1024.9 1025.0 0.0
27/08:00am 5.9 3.1 5.2 95 0.3 E 9 9 5 5 1024.9 1025.0 0.0
27/07:30am 6.0 3.2 5.1 94 0.4 ENE 9 11 5 6 1024.8 1024.9 0.0
27/07:00am 6.3 3.6 5.7 96 0.3 ENE 9 13 5 7 1024.7 1024.8 0.0
27/06:30am 6.1 3.1 5.8 98 0.1 ENE 11 13 6 7 1024.5 1024.6 0.0
27/06:00am 5.4 2.2 5.1 98 0.1 E 11 13 6 7 1024.4 1024.5 0.0
27/05:30am 5.2 2.0 4.9 98 0.1 ESE 11 13 6 7 1024.5 1024.6 0.0
27/05:00am 5.3 2.5 5.0 98 0.1 E 9 11 5 6 1024.9 1025.0 0.0
27/04:30am 5.1 2.3 5.0 99 0.0 E 9 9 5 5 1025.3 1025.4 0.0
27/04:00am 4.9 2.0 4.6 98 0.1 ESE 9 11 5 6 1025.1 1025.2 0.0
27/03:30am 4.8 1.9 4.4 97 0.2 SE 9 13 5 7 1024.8 1024.9 0.0
27/03:00am 5.1 1.8 4.7 97 0.2 SE 11 11 6 6 1025.2 1025.3 0.0
27/02:30am 5.2 2.3 4.6 96 0.3 E 9 11 5 6 1025.1 1025.2 0.0
27/02:00am 5.2 1.9 4.5 95 0.3 ESE 11 11 6 6 1025.0 1025.1 0.0
27/01:30am 5.5 2.6 4.5 93 0.4 SE 9 11 5 6 1025.0 1025.1 0.0
27/01:00am 5.9 3.0 4.7 92 0.5 ESE 9 9 5 5 1025.3 1025.4 0.0
27/12:30am 6.2 3.3 4.8 91 0.6 ESE 9 11 5 6 1025.3 1025.4 0.0
27/12:00am 6.2 3.8 4.2 87 0.9 SE 6 9 3 5 1025.6 1025.7 0.0
 
Date/Time
EST
Temp
°C
App
Temp
°C
Dew
Point
°C
Rel
Hum
%
Delta-T
°C
Wind Press
QNH
hPa
Press
MSL
hPa
Rain since
9am
mm
Dir  Spd
km/h
Gust
km/h
Spd
kts
Gust
kts
26/11:30pm 6.9 4.4 4.7 86 1.0 SE 7 11 4 6 1025.6 1025.7 0.0
26/11:00pm 7.4 3.8 5.0 85 1.1 SE 13 13 7 7 1025.6 1025.7 0.0
26/10:30pm 7.3 3.6 4.6 83 1.2 SE 13 15 7 8 1025.4 1025.5 0.0
26/10:00pm 7.3 3.6 4.4 82 1.3 SSE 13 15 7 8 1025.4 1025.5 0.0
26/09:30pm 8.4 5.5 4.8 78 1.6 SSE 9 11 5 6 1025.5 1025.6 0.0
26/09:00pm 8.6 6.1 4.8 77 1.7 SSE 7 9 4 5 1025.6 1025.7 0.0
26/08:30pm 8.9 6.4 4.5 74 2.0 SSE 7 9 4 5 1025.6 1025.7 0.0
26/08:00pm 9.5 6.6 4.7 72 2.1 ESE 9 9 5 5 1025.2 1025.3 0.0
26/07:30pm 9.5 6.9 4.3 70 2.3 SE 7 9 4 5 1024.6 1024.7 0.0
26/07:00pm 10.3 7.9 4.2 66 2.7 SE 6 9 3 5 1024.4 1024.5 0.0
26/06:30pm 11.5 9.0 4.7 63 3.1 SSE 7 9 4 5 1023.9 1024.0 0.0
26/06:00pm 11.8 9.3 4.5 61 3.3 S 7 9 4 5 1024.0 1024.1 0.0
26/05:30pm 13.1 10.6 4.8 57 3.8 S 7 9 4 5 1024.0 1024.1 0.0
26/05:00pm 14.8 12.4 5.1 52 4.6 SSE 7 11 4 6 1023.6 1023.7 0.0
26/04:30pm 16.1 13.6 4.8 47 5.4 SSW 7 9 4 5 1023.9 1024.0 0.0
26/04:00pm 16.6 13.1 5.6 48 5.3 SSW 13 17 7 9 1024.1 1024.2 0.0
26/03:30pm 16.5 13.8 5.5 48 5.3 WSW 9 13 5 7 1023.8 1023.9 0.0
26/03:00pm 17.1 14.8 5.7 47 5.5 S 7 13 4 7 1023.8 1023.9 0.0
26/02:30pm 16.7 12.8 5.3 47 5.5 S 15 22 8 12 1023.3 1023.4 0.0
26/02:00pm 16.5 13.7 6.9 53 4.7 SSW 11 19 6 10 1023.3 1023.4 0.0
26/01:30pm 15.5 12.6 6.5 55 4.4 S 11 17 6 9 1023.7 1023.8 0.0
26/01:00pm 16.1 13.8 7.3 56 4.4 S 9 17 5 9 1024.1 1024.2 0.0
26/12:30pm 15.5 13.5 7.3 58 4.1 SW 7 13 4 7 1024.5 1024.6 0.0
26/12:00pm 14.9 12.9 7.2 60 3.8 SSW 7 13 4 7 1024.8 1024.9 0.0
26/11:30am 14.4 11.8 7.9 65 3.2 SSW 11 15 6 8 1025.2 1025.3 0.0
26/11:00am 13.5 11.6 7.7 68 2.9 SSE 7 13 4 7 1025.4 1025.5 0.0
26/10:30am 12.7 10.9 8.0 73 2.3 S 7 11 4 6 1025.5 1025.6 0.0

Other Formats:

Comma delimited format used in spreadsheet applications
http://www.bom.gov.au/fwo/IDN60801/IDN60801.95697.axf

JavaScript Object Notation format (JSON) in row-major order
http://www.bom.gov.au/fwo/IDN60801/IDN60801.95697.json